sensor_id;sensor_type;location;lat;lon;timestamp;P1;durP1;ratioP1;P2;durP2;ratioP2
34489;SDS011;20730;49.372;7.324;2023-05-25T00:01:36;13.30;;;4.15;;
34489;SDS011;20730;49.372;7.324;2023-05-25T00:04:03;12.65;;;3.60;;
34489;SDS011;20730;49.372;7.324;2023-05-25T00:06:31;14.25;;;4.10;;
34489;SDS011;20730;49.372;7.324;2023-05-25T00:08:58;12.60;;;4.28;;
34489;SDS011;20730;49.372;7.324;2023-05-25T00:11:25;14.43;;;4.45;;
34489;SDS011;20730;49.372;7.324;2023-05-25T00:13:53;14.35;;;4.57;;
34489;SDS011;20730;49.372;7.324;2023-05-25T00:16:20;12.70;;;5.43;;
34489;SDS011;20730;49.372;7.324;2023-05-25T00:18:47;14.52;;;4.30;;
34489;SDS011;20730;49.372;7.324;2023-05-25T00:21:14;16.52;;;4.40;;
34489;SDS011;20730;49.372;7.324;2023-05-25T00:23:42;14.50;;;4.53;;
34489;SDS011;20730;49.372;7.324;2023-05-25T00:26:09;14.77;;;4.45;;
34489;SDS011;20730;49.372;7.324;2023-05-25T00:28:36;16.80;;;4.70;;
34489;SDS011;20730;49.372;7.324;2023-05-25T00:31:03;13.23;;;4.53;;
34489;SDS011;20730;49.372;7.324;2023-05-25T00:33:31;13.45;;;4.78;;
34489;SDS011;20730;49.372;7.324;2023-05-25T00:35:58;9.73;;;4.00;;
34489;SDS011;20730;49.372;7.324;2023-05-25T00:38:25;14.00;;;4.75;;
34489;SDS011;20730;49.372;7.324;2023-05-25T00:40:56;18.95;;;4.57;;
34489;SDS011;20730;49.372;7.324;2023-05-25T00:43:23;10.82;;;4.38;;
34489;SDS011;20730;49.372;7.324;2023-05-25T00:45:50;13.43;;;4.32;;
34489;SDS011;20730;49.372;7.324;2023-05-25T00:48:17;11.48;;;4.20;;
34489;SDS011;20730;49.372;7.324;2023-05-25T00:50:44;11.35;;;4.57;;
34489;SDS011;20730;49.372;7.324;2023-05-25T00:53:12;14.45;;;4.43;;
34489;SDS011;20730;49.372;7.324;2023-05-25T00:55:42;12.80;;;4.47;;
34489;SDS011;20730;49.372;7.324;2023-05-25T00:58:19;10.18;;;4.07;;
34489;SDS011;20730;49.372;7.324;2023-05-25T01:00:48;15.00;;;4.78;;
34489;SDS011;20730;49.372;7.324;2023-05-25T01:03:18;11.65;;;4.95;;
34489;SDS011;20730;49.372;7.324;2023-05-25T01:05:48;14.65;;;4.18;;
34489;SDS011;20730;49.372;7.324;2023-05-25T01:08:17;13.70;;;4.47;;
34489;SDS011;20730;49.372;7.324;2023-05-25T01:10:47;13.45;;;4.90;;
34489;SDS011;20730;49.372;7.324;2023-05-25T01:13:16;11.57;;;4.40;;
34489;SDS011;20730;49.372;7.324;2023-05-25T01:15:46;13.45;;;4.57;;
34489;SDS011;20730;49.372;7.324;2023-05-25T01:18:14;12.43;;;4.68;;
34489;SDS011;20730;49.372;7.324;2023-05-25T01:20:51;12.82;;;4.65;;
34489;SDS011;20730;49.372;7.324;2023-05-25T01:23:45;13.00;;;4.95;;
34489;SDS011;20730;49.372;7.324;2023-05-25T01:26:14;20.02;;;4.78;;
34489;SDS011;20730;49.372;7.324;2023-05-25T01:28:43;10.60;;;4.63;;
34489;SDS011;20730;49.372;7.324;2023-05-25T01:31:13;15.93;;;4.88;;
34489;SDS011;20730;49.372;7.324;2023-05-25T01:33:41;11.48;;;4.90;;
34489;SDS011;20730;49.372;7.324;2023-05-25T01:36:10;18.23;;;5.40;;
34489;SDS011;20730;49.372;7.324;2023-05-25T01:38:37;13.25;;;5.55;;
34489;SDS011;20730;49.372;7.324;2023-05-25T01:41:04;17.27;;;4.97;;
34489;SDS011;20730;49.372;7.324;2023-05-25T01:43:31;8.77;;;4.90;;
34489;SDS011;20730;49.372;7.324;2023-05-25T01:46:03;12.27;;;5.18;;
34489;SDS011;20730;49.372;7.324;2023-05-25T01:48:44;11.70;;;5.15;;
34489;SDS011;20730;49.372;7.324;2023-05-25T01:54:18;13.40;;;5.57;;
34489;SDS011;20730;49.372;7.324;2023-05-25T01:56:46;13.90;;;5.00;;
34489;SDS011;20730;49.372;7.324;2023-05-25T01:59:18;11.87;;;4.90;;
34489;SDS011;20730;49.372;7.324;2023-05-25T02:01:47;14.15;;;5.53;;
34489;SDS011;20730;49.372;7.324;2023-05-25T02:04:19;16.92;;;4.90;;
34489;SDS011;20730;49.372;7.324;2023-05-25T02:06:50;17.43;;;6.23;;
34489;SDS011;20730;49.372;7.324;2023-05-25T02:11:46;15.35;;;5.57;;
34489;SDS011;20730;49.372;7.324;2023-05-25T02:14:14;14.80;;;5.38;;
34489;SDS011;20730;49.372;7.324;2023-05-25T02:16:41;15.35;;;5.15;;
34489;SDS011;20730;49.372;7.324;2023-05-25T02:19:11;13.75;;;5.22;;
34489;SDS011;20730;49.372;7.324;2023-05-25T02:21:40;10.48;;;4.82;;
34489;SDS011;20730;49.372;7.324;2023-05-25T02:24:11;14.20;;;5.60;;
34489;SDS011;20730;49.372;7.324;2023-05-25T02:26:39;15.73;;;6.05;;
34489;SDS011;20730;49.372;7.324;2023-05-25T02:29:07;16.00;;;5.75;;
34489;SDS011;20730;49.372;7.324;2023-05-25T02:31:34;15.00;;;5.32;;
34489;SDS011;20730;49.372;7.324;2023-05-25T02:34:01;13.63;;;5.30;;
34489;SDS011;20730;49.372;7.324;2023-05-25T02:36:28;12.82;;;5.43;;
34489;SDS011;20730;49.372;7.324;2023-05-25T02:38:57;15.25;;;6.22;;
34489;SDS011;20730;49.372;7.324;2023-05-25T02:41:24;14.35;;;5.53;;
34489;SDS011;20730;49.372;7.324;2023-05-25T02:43:52;20.95;;;5.80;;
34489;SDS011;20730;49.372;7.324;2023-05-25T02:46:20;14.10;;;5.32;;
34489;SDS011;20730;49.372;7.324;2023-05-25T02:48:49;11.23;;;5.25;;
34489;SDS011;20730;49.372;7.324;2023-05-25T02:51:16;14.32;;;5.53;;
34489;SDS011;20730;49.372;7.324;2023-05-25T02:53:43;10.25;;;5.03;;
34489;SDS011;20730;49.372;7.324;2023-05-25T02:56:11;19.48;;;5.50;;
34489;SDS011;20730;49.372;7.324;2023-05-25T02:58:38;12.15;;;5.50;;
34489;SDS011;20730;49.372;7.324;2023-05-25T03:01:10;12.95;;;5.55;;
34489;SDS011;20730;49.372;7.324;2023-05-25T03:03:49;12.48;;;5.00;;
34489;SDS011;20730;49.372;7.324;2023-05-25T03:06:21;16.08;;;5.88;;
34489;SDS011;20730;49.372;7.324;2023-05-25T03:08:53;14.02;;;5.63;;
34489;SDS011;20730;49.372;7.324;2023-05-25T03:11:21;12.57;;;5.47;;
34489;SDS011;20730;49.372;7.324;2023-05-25T03:13:49;11.70;;;5.55;;
34489;SDS011;20730;49.372;7.324;2023-05-25T03:16:19;16.00;;;5.00;;
34489;SDS011;20730;49.372;7.324;2023-05-25T03:18:49;12.85;;;5.32;;
34489;SDS011;20730;49.372;7.324;2023-05-25T03:21:16;13.85;;;5.82;;
34489;SDS011;20730;49.372;7.324;2023-05-25T03:23:43;11.30;;;5.70;;
34489;SDS011;20730;49.372;7.324;2023-05-25T03:26:11;14.93;;;6.00;;
34489;SDS011;20730;49.372;7.324;2023-05-25T03:28:39;15.18;;;6.68;;
34489;SDS011;20730;49.372;7.324;2023-05-25T03:31:06;12.57;;;5.82;;
34489;SDS011;20730;49.372;7.324;2023-05-25T03:33:33;11.82;;;5.20;;
34489;SDS011;20730;49.372;7.324;2023-05-25T03:36:00;15.35;;;6.32;;
34489;SDS011;20730;49.372;7.324;2023-05-25T03:38:33;16.45;;;6.85;;
34489;SDS011;20730;49.372;7.324;2023-05-25T03:41:02;17.75;;;6.50;;
34489;SDS011;20730;49.372;7.324;2023-05-25T03:43:29;13.63;;;6.25;;
34489;SDS011;20730;49.372;7.324;2023-05-25T03:45:56;13.90;;;6.07;;
34489;SDS011;20730;49.372;7.324;2023-05-25T03:48:23;11.82;;;5.78;;
34489;SDS011;20730;49.372;7.324;2023-05-25T03:50:50;17.85;;;6.55;;
34489;SDS011;20730;49.372;7.324;2023-05-25T03:53:18;13.40;;;6.22;;
34489;SDS011;20730;49.372;7.324;2023-05-25T03:55:45;14.93;;;5.40;;
34489;SDS011;20730;49.372;7.324;2023-05-25T03:58:13;13.23;;;6.25;;
34489;SDS011;20730;49.372;7.324;2023-05-25T04:00:41;18.65;;;6.32;;
34489;SDS011;20730;49.372;7.324;2023-05-25T04:03:08;12.70;;;5.68;;
34489;SDS011;20730;49.372;7.324;2023-05-25T04:05:37;10.25;;;4.88;;
34489;SDS011;20730;49.372;7.324;2023-05-25T04:08:04;11.10;;;5.07;;
34489;SDS011;20730;49.372;7.324;2023-05-25T04:10:33;15.13;;;5.57;;
34489;SDS011;20730;49.372;7.324;2023-05-25T04:13:01;11.85;;;4.72;;
34489;SDS011;20730;49.372;7.324;2023-05-25T04:15:28;13.68;;;5.13;;
34489;SDS011;20730;49.372;7.324;2023-05-25T04:18:03;14.73;;;4.70;;
34489;SDS011;20730;49.372;7.324;2023-05-25T04:20:30;9.82;;;4.60;;
34489;SDS011;20730;49.372;7.324;2023-05-25T04:22:58;12.88;;;5.07;;
34489;SDS011;20730;49.372;7.324;2023-05-25T04:25:25;8.82;;;4.72;;
34489;SDS011;20730;49.372;7.324;2023-05-25T04:27:55;10.13;;;4.82;;
34489;SDS011;20730;49.372;7.324;2023-05-25T04:30:39;11.63;;;4.90;;
34489;SDS011;20730;49.372;7.324;2023-05-25T04:33:36;15.73;;;4.57;;
34489;SDS011;20730;49.372;7.324;2023-05-25T04:36:24;12.60;;;4.70;;
34489;SDS011;20730;49.372;7.324;2023-05-25T04:38:51;13.10;;;5.25;;
34489;SDS011;20730;49.372;7.324;2023-05-25T04:41:21;11.68;;;5.45;;
34489;SDS011;20730;49.372;7.324;2023-05-25T04:43:52;10.18;;;5.30;;
34489;SDS011;20730;49.372;7.324;2023-05-25T04:46:36;11.73;;;4.90;;
34489;SDS011;20730;49.372;7.324;2023-05-25T04:49:08;12.43;;;5.28;;
34489;SDS011;20730;49.372;7.324;2023-05-25T04:51:35;12.15;;;5.35;;
34489;SDS011;20730;49.372;7.324;2023-05-25T04:54:03;13.43;;;5.53;;
34489;SDS011;20730;49.372;7.324;2023-05-25T04:56:32;10.50;;;5.13;;
34489;SDS011;20730;49.372;7.324;2023-05-25T04:58:59;14.30;;;4.32;;
34489;SDS011;20730;49.372;7.324;2023-05-25T05:01:27;10.85;;;4.72;;
34489;SDS011;20730;49.372;7.324;2023-05-25T05:03:59;14.70;;;5.70;;
34489;SDS011;20730;49.372;7.324;2023-05-25T05:06:26;11.85;;;5.20;;
34489;SDS011;20730;49.372;7.324;2023-05-25T05:08:54;11.98;;;5.53;;
34489;SDS011;20730;49.372;7.324;2023-05-25T05:11:22;13.20;;;5.90;;
34489;SDS011;20730;49.372;7.324;2023-05-25T05:13:52;11.48;;;4.63;;
34489;SDS011;20730;49.372;7.324;2023-05-25T05:16:19;10.63;;;5.40;;
34489;SDS011;20730;49.372;7.324;2023-05-25T05:18:46;10.55;;;5.25;;
34489;SDS011;20730;49.372;7.324;2023-05-25T05:21:14;11.63;;;5.40;;
34489;SDS011;20730;49.372;7.324;2023-05-25T05:23:42;11.48;;;4.68;;
34489;SDS011;20730;49.372;7.324;2023-05-25T05:26:09;15.40;;;5.65;;
34489;SDS011;20730;49.372;7.324;2023-05-25T05:28:37;12.93;;;5.43;;
34489;SDS011;20730;49.372;7.324;2023-05-25T05:31:04;11.00;;;5.40;;
34489;SDS011;20730;49.372;7.324;2023-05-25T05:33:33;9.93;;;5.05;;
34489;SDS011;20730;49.372;7.324;2023-05-25T05:36:01;9.80;;;5.47;;
34489;SDS011;20730;49.372;7.324;2023-05-25T05:38:30;13.45;;;5.47;;
34489;SDS011;20730;49.372;7.324;2023-05-25T05:40:57;10.40;;;5.30;;
34489;SDS011;20730;49.372;7.324;2023-05-25T05:43:25;14.02;;;5.53;;
34489;SDS011;20730;49.372;7.324;2023-05-25T05:45:53;11.02;;;4.60;;
34489;SDS011;20730;49.372;7.324;2023-05-25T05:48:20;13.77;;;5.35;;
34489;SDS011;20730;49.372;7.324;2023-05-25T05:50:48;10.80;;;5.38;;
34489;SDS011;20730;49.372;7.324;2023-05-25T05:53:15;13.20;;;5.60;;
34489;SDS011;20730;49.372;7.324;2023-05-25T05:55:43;8.45;;;4.93;;
34489;SDS011;20730;49.372;7.324;2023-05-25T05:58:13;12.68;;;5.43;;
34489;SDS011;20730;49.372;7.324;2023-05-25T06:00:41;9.93;;;4.93;;
34489;SDS011;20730;49.372;7.324;2023-05-25T06:03:08;14.80;;;4.82;;
34489;SDS011;20730;49.372;7.324;2023-05-25T06:05:35;13.90;;;4.57;;
34489;SDS011;20730;49.372;7.324;2023-05-25T06:08:02;14.13;;;5.40;;
34489;SDS011;20730;49.372;7.324;2023-05-25T06:10:33;12.70;;;5.40;;
34489;SDS011;20730;49.372;7.324;2023-05-25T06:13:00;13.07;;;5.57;;
34489;SDS011;20730;49.372;7.324;2023-05-25T06:15:27;11.23;;;4.70;;
34489;SDS011;20730;49.372;7.324;2023-05-25T06:17:57;12.05;;;5.00;;
34489;SDS011;20730;49.372;7.324;2023-05-25T06:20:25;11.82;;;4.38;;
34489;SDS011;20730;49.372;7.324;2023-05-25T06:22:53;13.88;;;5.00;;
34489;SDS011;20730;49.372;7.324;2023-05-25T06:25:20;10.02;;;4.80;;
34489;SDS011;20730;49.372;7.324;2023-05-25T06:27:48;11.80;;;4.82;;
34489;SDS011;20730;49.372;7.324;2023-05-25T06:30:15;9.35;;;4.63;;
34489;SDS011;20730;49.372;7.324;2023-05-25T06:32:43;11.18;;;4.43;;
34489;SDS011;20730;49.372;7.324;2023-05-25T06:35:11;10.38;;;4.13;;
34489;SDS011;20730;49.372;7.324;2023-05-25T06:37:48;11.65;;;4.38;;
34489;SDS011;20730;49.372;7.324;2023-05-25T06:40:17;17.17;;;5.00;;
34489;SDS011;20730;49.372;7.324;2023-05-25T06:42:45;16.13;;;5.00;;
34489;SDS011;20730;49.372;7.324;2023-05-25T06:45:44;10.80;;;4.20;;
34489;SDS011;20730;49.372;7.324;2023-05-25T06:48:12;8.88;;;3.97;;
34489;SDS011;20730;49.372;7.324;2023-05-25T06:50:40;12.55;;;4.10;;
34489;SDS011;20730;49.372;7.324;2023-05-25T06:53:07;10.90;;;4.30;;
34489;SDS011;20730;49.372;7.324;2023-05-25T06:55:36;10.73;;;4.53;;
34489;SDS011;20730;49.372;7.324;2023-05-25T06:58:04;10.43;;;4.40;;
34489;SDS011;20730;49.372;7.324;2023-05-25T07:00:31;7.97;;;4.03;;
34489;SDS011;20730;49.372;7.324;2023-05-25T07:02:58;14.48;;;4.00;;
34489;SDS011;20730;49.372;7.324;2023-05-25T07:05:25;11.05;;;4.30;;
34489;SDS011;20730;49.372;7.324;2023-05-25T07:07:53;10.35;;;3.67;;
34489;SDS011;20730;49.372;7.324;2023-05-25T07:10:20;9.07;;;3.95;;
34489;SDS011;20730;49.372;7.324;2023-05-25T07:12:47;10.63;;;4.00;;
34489;SDS011;20730;49.372;7.324;2023-05-25T07:15:13;10.52;;;3.78;;
34489;SDS011;20730;49.372;7.324;2023-05-25T07:17:42;8.93;;;4.22;;
34489;SDS011;20730;49.372;7.324;2023-05-25T07:20:10;9.57;;;3.63;;
34489;SDS011;20730;49.372;7.324;2023-05-25T07:22:38;7.90;;;3.50;;
34489;SDS011;20730;49.372;7.324;2023-05-25T07:25:06;8.30;;;3.60;;
34489;SDS011;20730;49.372;7.324;2023-05-25T07:27:34;7.90;;;3.55;;
34489;SDS011;20730;49.372;7.324;2023-05-25T07:30:01;11.07;;;4.63;;
34489;SDS011;20730;49.372;7.324;2023-05-25T07:32:28;13.90;;;3.72;;
34489;SDS011;20730;49.372;7.324;2023-05-25T07:34:56;10.40;;;3.55;;
34489;SDS011;20730;49.372;7.324;2023-05-25T07:37:23;9.73;;;3.55;;
34489;SDS011;20730;49.372;7.324;2023-05-25T07:39:50;11.70;;;3.88;;
34489;SDS011;20730;49.372;7.324;2023-05-25T07:42:17;9.35;;;3.63;;
34489;SDS011;20730;49.372;7.324;2023-05-25T07:44:47;11.02;;;3.58;;
34489;SDS011;20730;49.372;7.324;2023-05-25T07:47:14;7.72;;;3.20;;
34489;SDS011;20730;49.372;7.324;2023-05-25T07:49:41;9.88;;;3.03;;
34489;SDS011;20730;49.372;7.324;2023-05-25T07:52:09;8.90;;;4.07;;
34489;SDS011;20730;49.372;7.324;2023-05-25T07:54:37;7.32;;;3.50;;
34489;SDS011;20730;49.372;7.324;2023-05-25T07:57:06;11.93;;;3.38;;
34489;SDS011;20730;49.372;7.324;2023-05-25T07:59:33;7.72;;;3.40;;
34489;SDS011;20730;49.372;7.324;2023-05-25T08:02:00;8.68;;;3.70;;
34489;SDS011;20730;49.372;7.324;2023-05-25T08:04:31;14.90;;;3.50;;
34489;SDS011;20730;49.372;7.324;2023-05-25T08:06:59;9.23;;;3.35;;
34489;SDS011;20730;49.372;7.324;2023-05-25T08:09:27;8.85;;;3.78;;
34489;SDS011;20730;49.372;7.324;2023-05-25T08:11:54;9.68;;;3.00;;
34489;SDS011;20730;49.372;7.324;2023-05-25T08:14:41;8.63;;;3.13;;
34489;SDS011;20730;49.372;7.324;2023-05-25T08:17:08;10.48;;;3.38;;
34489;SDS011;20730;49.372;7.324;2023-05-25T08:19:36;8.95;;;2.90;;
34489;SDS011;20730;49.372;7.324;2023-05-25T08:22:03;7.10;;;2.92;;
34489;SDS011;20730;49.372;7.324;2023-05-25T08:24:30;10.13;;;3.13;;
34489;SDS011;20730;49.372;7.324;2023-05-25T08:26:57;7.70;;;3.20;;
34489;SDS011;20730;49.372;7.324;2023-05-25T08:29:24;9.15;;;3.20;;
34489;SDS011;20730;49.372;7.324;2023-05-25T08:31:52;7.75;;;2.95;;
34489;SDS011;20730;49.372;7.324;2023-05-25T08:34:19;7.97;;;3.45;;
34489;SDS011;20730;49.372;7.324;2023-05-25T08:36:46;6.65;;;3.10;;
34489;SDS011;20730;49.372;7.324;2023-05-25T08:39:13;7.10;;;2.70;;
34489;SDS011;20730;49.372;7.324;2023-05-25T08:41:42;7.13;;;2.97;;
34489;SDS011;20730;49.372;7.324;2023-05-25T08:44:10;8.80;;;3.17;;
34489;SDS011;20730;49.372;7.324;2023-05-25T08:46:40;5.90;;;2.93;;
34489;SDS011;20730;49.372;7.324;2023-05-25T08:49:08;6.85;;;2.78;;
34489;SDS011;20730;49.372;7.324;2023-05-25T08:51:36;7.50;;;3.17;;
34489;SDS011;20730;49.372;7.324;2023-05-25T08:54:06;6.43;;;3.17;;
34489;SDS011;20730;49.372;7.324;2023-05-25T08:56:40;7.30;;;3.05;;
34489;SDS011;20730;49.372;7.324;2023-05-25T08:59:11;9.82;;;3.70;;
34489;SDS011;20730;49.372;7.324;2023-05-25T09:02:04;6.70;;;3.28;;
34489;SDS011;20730;49.372;7.324;2023-05-25T09:04:42;8.77;;;3.15;;
34489;SDS011;20730;49.372;7.324;2023-05-25T09:07:09;11.48;;;4.00;;
34489;SDS011;20730;49.372;7.324;2023-05-25T09:09:37;9.93;;;3.25;;
34489;SDS011;20730;49.372;7.324;2023-05-25T09:12:05;8.38;;;3.50;;
34489;SDS011;20730;49.372;7.324;2023-05-25T09:14:33;8.55;;;2.90;;
34489;SDS011;20730;49.372;7.324;2023-05-25T09:17:03;9.70;;;3.05;;
34489;SDS011;20730;49.372;7.324;2023-05-25T09:19:30;7.43;;;2.70;;
34489;SDS011;20730;49.372;7.324;2023-05-25T09:21:59;6.88;;;2.90;;
34489;SDS011;20730;49.372;7.324;2023-05-25T09:24:41;9.38;;;3.05;;
34489;SDS011;20730;49.372;7.324;2023-05-25T09:27:10;5.75;;;2.50;;
34489;SDS011;20730;49.372;7.324;2023-05-25T09:29:38;10.20;;;3.25;;
34489;SDS011;20730;49.372;7.324;2023-05-25T09:32:05;9.23;;;3.25;;
34489;SDS011;20730;49.372;7.324;2023-05-25T09:34:33;10.85;;;3.40;;
34489;SDS011;20730;49.372;7.324;2023-05-25T09:37:10;7.57;;;3.00;;
34489;SDS011;20730;49.372;7.324;2023-05-25T09:39:43;10.80;;;2.95;;
34489;SDS011;20730;49.372;7.324;2023-05-25T09:42:10;6.75;;;2.78;;
34489;SDS011;20730;49.372;7.324;2023-05-25T09:44:39;7.85;;;3.30;;
34489;SDS011;20730;49.372;7.324;2023-05-25T09:47:08;7.43;;;3.70;;
34489;SDS011;20730;49.372;7.324;2023-05-25T09:49:35;7.90;;;3.33;;
34489;SDS011;20730;49.372;7.324;2023-05-25T09:52:02;10.25;;;3.47;;
34489;SDS011;20730;49.372;7.324;2023-05-25T09:54:30;7.75;;;3.17;;
34489;SDS011;20730;49.372;7.324;2023-05-25T09:57:01;13.73;;;3.22;;
34489;SDS011;20730;49.372;7.324;2023-05-25T09:59:30;10.80;;;3.22;;
34489;SDS011;20730;49.372;7.324;2023-05-25T10:01:57;5.88;;;2.83;;
34489;SDS011;20730;49.372;7.324;2023-05-25T10:04:25;9.63;;;2.80;;
34489;SDS011;20730;49.372;7.324;2023-05-25T10:06:52;10.00;;;3.20;;
34489;SDS011;20730;49.372;7.324;2023-05-25T10:09:19;8.30;;;2.88;;
34489;SDS011;20730;49.372;7.324;2023-05-25T10:11:47;8.32;;;3.15;;
34489;SDS011;20730;49.372;7.324;2023-05-25T10:14:19;5.82;;;2.72;;
34489;SDS011;20730;49.372;7.324;2023-05-25T10:16:56;7.63;;;2.65;;
34489;SDS011;20730;49.372;7.324;2023-05-25T10:19:39;9.50;;;3.25;;
34489;SDS011;20730;49.372;7.324;2023-05-25T10:27:18;12.38;;;6.90;;
34489;SDS011;20730;49.372;7.324;2023-05-25T10:29:54;8.32;;;3.65;;
34489;SDS011;20730;49.372;7.324;2023-05-25T10:32:23;9.77;;;3.60;;
34489;SDS011;20730;49.372;7.324;2023-05-25T10:34:51;9.93;;;3.60;;
34489;SDS011;20730;49.372;7.324;2023-05-25T10:37:19;8.90;;;3.80;;
34489;SDS011;20730;49.372;7.324;2023-05-25T10:39:46;10.00;;;3.65;;
34489;SDS011;20730;49.372;7.324;2023-05-25T10:42:17;8.18;;;3.65;;
34489;SDS011;20730;49.372;7.324;2023-05-25T10:44:44;6.97;;;3.35;;
34489;SDS011;20730;49.372;7.324;2023-05-25T10:47:12;7.35;;;2.90;;
34489;SDS011;20730;49.372;7.324;2023-05-25T10:49:53;9.73;;;3.40;;
34489;SDS011;20730;49.372;7.324;2023-05-25T10:52:25;8.27;;;3.38;;
34489;SDS011;20730;49.372;7.324;2023-05-25T10:54:55;9.02;;;3.38;;
34489;SDS011;20730;49.372;7.324;2023-05-25T10:57:23;7.00;;;3.10;;
34489;SDS011;20730;49.372;7.324;2023-05-25T10:59:52;10.52;;;2.80;;
34489;SDS011;20730;49.372;7.324;2023-05-25T11:02:51;13.52;;;3.30;;
34489;SDS011;20730;49.372;7.324;2023-05-25T11:08:03;8.25;;;3.00;;
34489;SDS011;20730;49.372;7.324;2023-05-25T11:23:56;7.38;;;2.70;;
34489;SDS011;20730;49.372;7.324;2023-05-25T11:26:28;7.97;;;3.10;;
34489;SDS011;20730;49.372;7.324;2023-05-25T11:28:57;14.65;;;3.50;;
34489;SDS011;20730;49.372;7.324;2023-05-25T11:31:31;10.02;;;3.20;;
34489;SDS011;20730;49.372;7.324;2023-05-25T11:34:06;6.93;;;2.90;;
34489;SDS011;20730;49.372;7.324;2023-05-25T11:36:36;7.05;;;3.15;;
34489;SDS011;20730;49.372;7.324;2023-05-25T11:39:04;9.88;;;3.53;;
34489;SDS011;20730;49.372;7.324;2023-05-25T11:41:39;13.52;;;3.55;;
34489;SDS011;20730;49.372;7.324;2023-05-25T11:44:13;7.80;;;3.22;;
34489;SDS011;20730;49.372;7.324;2023-05-25T11:46:41;8.70;;;3.40;;
34489;SDS011;20730;49.372;7.324;2023-05-25T11:49:09;6.90;;;3.40;;
34489;SDS011;20730;49.372;7.324;2023-05-25T11:51:36;6.45;;;3.05;;
34489;SDS011;20730;49.372;7.324;2023-05-25T11:54:03;7.75;;;3.42;;
34489;SDS011;20730;49.372;7.324;2023-05-25T11:56:31;9.07;;;3.10;;
34489;SDS011;20730;49.372;7.324;2023-05-25T11:59:06;10.68;;;3.20;;
34489;SDS011;20730;49.372;7.324;2023-05-25T12:01:34;5.38;;;3.00;;
34489;SDS011;20730;49.372;7.324;2023-05-25T12:04:06;9.80;;;3.63;;
34489;SDS011;20730;49.372;7.324;2023-05-25T12:06:35;8.82;;;3.65;;
34489;SDS011;20730;49.372;7.324;2023-05-25T12:09:02;10.52;;;3.13;;
34489;SDS011;20730;49.372;7.324;2023-05-25T12:11:31;8.30;;;3.13;;
34489;SDS011;20730;49.372;7.324;2023-05-25T12:14:00;7.43;;;3.63;;
34489;SDS011;20730;49.372;7.324;2023-05-25T12:16:29;8.40;;;3.42;;
34489;SDS011;20730;49.372;7.324;2023-05-25T12:18:57;7.28;;;3.70;;
34489;SDS011;20730;49.372;7.324;2023-05-25T12:21:24;10.77;;;3.78;;
34489;SDS011;20730;49.372;7.324;2023-05-25T12:23:52;7.70;;;3.65;;
34489;SDS011;20730;49.372;7.324;2023-05-25T12:26:20;7.15;;;3.28;;
34489;SDS011;20730;49.372;7.324;2023-05-25T12:28:57;9.93;;;3.42;;
34489;SDS011;20730;49.372;7.324;2023-05-25T12:34:29;9.35;;;3.97;;
34489;SDS011;20730;49.372;7.324;2023-05-25T12:36:49;9.10;;;3.80;;
34489;SDS011;20730;49.372;7.324;2023-05-25T12:39:30;9.43;;;3.50;;
34489;SDS011;20730;49.372;7.324;2023-05-25T12:41:58;6.93;;;3.28;;
34489;SDS011;20730;49.372;7.324;2023-05-25T12:47:10;7.15;;;3.38;;
34489;SDS011;20730;49.372;7.324;2023-05-25T12:49:37;6.65;;;3.22;;
34489;SDS011;20730;49.372;7.324;2023-05-25T12:52:07;8.38;;;3.00;;
34489;SDS011;20730;49.372;7.324;2023-05-25T12:57:11;7.60;;;3.13;;
34489;SDS011;20730;49.372;7.324;2023-05-25T12:59:43;7.68;;;3.20;;
34489;SDS011;20730;49.372;7.324;2023-05-25T13:02:11;6.05;;;3.22;;
34489;SDS011;20730;49.372;7.324;2023-05-25T13:04:40;6.80;;;3.13;;
34489;SDS011;20730;49.372;7.324;2023-05-25T13:07:07;5.88;;;3.15;;
34489;SDS011;20730;49.372;7.324;2023-05-25T13:09:35;5.35;;;2.95;;
34489;SDS011;20730;49.372;7.324;2023-05-25T13:12:03;10.65;;;3.72;;
34489;SDS011;20730;49.372;7.324;2023-05-25T13:14:31;6.43;;;3.00;;
34489;SDS011;20730;49.372;7.324;2023-05-25T13:17:00;12.40;;;3.58;;
34489;SDS011;20730;49.372;7.324;2023-05-25T13:19:27;6.25;;;3.30;;
34489;SDS011;20730;49.372;7.324;2023-05-25T13:21:54;6.88;;;3.35;;
34489;SDS011;20730;49.372;7.324;2023-05-25T13:24:22;17.42;;;3.33;;
34489;SDS011;20730;49.372;7.324;2023-05-25T13:26:50;23.17;;;3.72;;
34489;SDS011;20730;49.372;7.324;2023-05-25T13:29:18;27.60;;;3.50;;
34489;SDS011;20730;49.372;7.324;2023-05-25T13:31:45;7.60;;;2.90;;
34489;SDS011;20730;49.372;7.324;2023-05-25T13:34:13;5.30;;;3.05;;
34489;SDS011;20730;49.372;7.324;2023-05-25T13:36:41;5.82;;;3.40;;
34489;SDS011;20730;49.372;7.324;2023-05-25T13:39:09;7.15;;;3.00;;
34489;SDS011;20730;49.372;7.324;2023-05-25T13:41:40;6.57;;;3.10;;
34489;SDS011;20730;49.372;7.324;2023-05-25T13:44:07;6.65;;;2.97;;
34489;SDS011;20730;49.372;7.324;2023-05-25T13:46:36;6.83;;;2.70;;
34489;SDS011;20730;49.372;7.324;2023-05-25T13:49:04;5.15;;;2.70;;
34489;SDS011;20730;49.372;7.324;2023-05-25T13:51:32;5.55;;;2.83;;
34489;SDS011;20730;49.372;7.324;2023-05-25T13:54:01;7.10;;;3.13;;
34489;SDS011;20730;49.372;7.324;2023-05-25T13:56:28;8.15;;;3.38;;
34489;SDS011;20730;49.372;7.324;2023-05-25T13:58:56;6.72;;;3.17;;
34489;SDS011;20730;49.372;7.324;2023-05-25T14:01:24;5.05;;;3.30;;
34489;SDS011;20730;49.372;7.324;2023-05-25T14:03:53;5.40;;;2.83;;
34489;SDS011;20730;49.372;7.324;2023-05-25T14:06:22;7.03;;;3.65;;
34489;SDS011;20730;49.372;7.324;2023-05-25T14:08:50;7.57;;;3.45;;
34489;SDS011;20730;49.372;7.324;2023-05-25T14:11:17;7.25;;;3.05;;
34489;SDS011;20730;49.372;7.324;2023-05-25T14:13:53;4.70;;;2.72;;
34489;SDS011;20730;49.372;7.324;2023-05-25T14:16:20;8.80;;;3.20;;
34489;SDS011;20730;49.372;7.324;2023-05-25T14:18:48;5.78;;;3.03;;
34489;SDS011;20730;49.372;7.324;2023-05-25T14:21:16;6.15;;;2.97;;
34489;SDS011;20730;49.372;7.324;2023-05-25T14:23:43;6.75;;;3.00;;
34489;SDS011;20730;49.372;7.324;2023-05-25T14:26:10;6.07;;;2.67;;
34489;SDS011;20730;49.372;7.324;2023-05-25T14:28:38;5.72;;;2.60;;
34489;SDS011;20730;49.372;7.324;2023-05-25T14:31:05;4.97;;;2.70;;
34489;SDS011;20730;49.372;7.324;2023-05-25T14:33:32;5.85;;;2.95;;
34489;SDS011;20730;49.372;7.324;2023-05-25T14:36:00;4.68;;;2.70;;
34489;SDS011;20730;49.372;7.324;2023-05-25T14:38:27;6.72;;;3.15;;
34489;SDS011;20730;49.372;7.324;2023-05-25T14:40:56;4.75;;;2.80;;
34489;SDS011;20730;49.372;7.324;2023-05-25T14:43:23;6.10;;;2.80;;
34489;SDS011;20730;49.372;7.324;2023-05-25T14:45:50;6.13;;;2.63;;
34489;SDS011;20730;49.372;7.324;2023-05-25T14:48:17;5.35;;;3.00;;
34489;SDS011;20730;49.372;7.324;2023-05-25T14:50:48;6.00;;;3.08;;
34489;SDS011;20730;49.372;7.324;2023-05-25T14:53:15;6.90;;;3.20;;
34489;SDS011;20730;49.372;7.324;2023-05-25T14:55:42;3.17;;;2.38;;
34489;SDS011;20730;49.372;7.324;2023-05-25T14:58:10;3.65;;;2.70;;
34489;SDS011;20730;49.372;7.324;2023-05-25T15:00:37;4.40;;;2.83;;
34489;SDS011;20730;49.372;7.324;2023-05-25T15:03:05;7.13;;;2.78;;
34489;SDS011;20730;49.372;7.324;2023-05-25T15:05:32;5.00;;;3.10;;
34489;SDS011;20730;49.372;7.324;2023-05-25T15:07:59;4.38;;;2.70;;
34489;SDS011;20730;49.372;7.324;2023-05-25T15:10:26;4.75;;;2.80;;
34489;SDS011;20730;49.372;7.324;2023-05-25T15:12:55;3.60;;;2.47;;
34489;SDS011;20730;49.372;7.324;2023-05-25T15:15:22;8.65;;;2.75;;
34489;SDS011;20730;49.372;7.324;2023-05-25T15:17:49;5.90;;;2.90;;
34489;SDS011;20730;49.372;7.324;2023-05-25T15:20:16;5.85;;;2.70;;
34489;SDS011;20730;49.372;7.324;2023-05-25T15:22:43;4.85;;;2.75;;
34489;SDS011;20730;49.372;7.324;2023-05-25T15:25:11;5.28;;;2.70;;
34489;SDS011;20730;49.372;7.324;2023-05-25T15:27:47;5.47;;;2.85;;